Aviation Digital Data Service (ADDS)

Output produced by METARs form (1918 UTC 29 April 2017)
found at http://www.aviationweather.gov/adds/metars/
 
KMDT 291856Z 30007KT 10SM SCT150 BKN200 OVC250 27/18 A3006 RMK AO2 SLP178 T02720183
KMDT 291756Z 31010KT 10SM SCT200 OVC250 26/17 A3004 RMK AO2 SLP172 60004 T02560172 10267 20178
KMDT 291656Z 30005KT 10SM FEW160 SCT200 OVC250 24/19 A3003 RMK AO2 SLP168 T02440189
KMDT 291556Z 13004KT 10SM SCT100 BKN200 OVC250 23/18 A3001
KMDT 291456Z COR 14005KT 10SM FEW095 BKN160 OVC250 22/18 A3001 RMK AO2 SLP160 60004 T02170183 58014 $
KMDT 291356Z COR 30013G18KT 10SM FEW050 SCT095 OVC160 21/18 A3005 RMK AO2 RAE44 PRESRR SLP174 P0002 T02060183 $
KMDT 291256Z COR 27010G16KT 4SM RA FEW045 SCT110 OVC200 21/18 A3007 RMK AO2 RAB41 SLP182 60002 T02060178 $
KMDT 291156Z COR 00000KT 3SM BR FEW180 OVC250 19/19 A3005 RMK AO2 SLP174 60038 70038 T01890189 10211 20172 53023 $
KMDT 291119Z 00000KT 3SM BR BKN180 OVC250 18/18 A3001 RMK AO2 T01830183 $
KMDT 291056Z 30003KT 2SM BR SCT170 OVC250 18/18 A3000 RMK AO2 PRESRR SLP158 T01780178 $
KMDT 291047Z 29004KT 1 3/4SM BR SCT170 OVC250 18/18 A2999 RMK AO2 PRESRR T01780178 $
KMDT 291021Z 30003KT 2SM BR SCT140 OVC250 18/18 A2996 RMK AO2 T01830183 $
KMDT 290956Z COR 00000KT 2 1/2SM BR FEW140 BKN180 OVC250 18/18 A2996 RMK AO2 SLP144 T01780178 $
KMDT 290856Z COR 00000KT 5SM BR FEW007 SCT140 OVC180 18/18 A2998 RMK AO2 RAB0757E13 SLP150 60038 T01830183 55009 P0000 $
KMDT 290835Z COR 29004KT 6SM BR FEW007 SCT011 BKN110 OVC180 18/18 A2999 RMK AO2 RAB0757E13 T01830178 P0000 $
KMDT 290756Z COR 16012KT 5SM BR FEW035 BKN100 BKN120 OVC180 18/18 A2993 RMK AO2 LTG DSNT E AND SE RAE50 TSE33 PRESFR SLP134 FRQ LTGICCC DSNT NE-SE TS MOVD E CB DSNT E P0036 T01780178 $
KMDT 290746Z COR 14005KT 5SM -RA BR FEW035 BKN100 BKN120 18/18 A2995 RMK AO2 LTG DSNT NE-SE TSE33 PRESFR FRQ LTGICCC DSNT NE-SE TS MOVD E CB DSNT E P0036 T01780178 $
KMDT 290738Z COR 16006KT 5SM -RA BR SCT031 BKN100 BKN120 18/18 A2997 RMK AO2 LTG DSNT NE-SE TSE33 FRQ LTGICCC DSNT NE-SE TS MOVD E CB DSNT E P0036 T01780178 $
KMDT 290724Z COR 14005KT 4SM -TSRA BR BKN023CB BKN043 OVC100 17/17 A2999 RMK AO2 LTG DSNT ALQDS PRESFR OCNL LTGICCGCC OHD AND NE-SE TS E MOV E CB E MOV E P0035 T01720172 $
KMDT 290717Z 15003KT 1 3/4SM R13/3500VP6000FT TSRA BR BKN023CB BKN043 OVC080 18/18 A3001 RMK AO2 LTG DSNT ALQDS FRQ LTGICCGCC OHD AND NE-SE TS OHD-E MOV E CB OHD-E MOV E P0000 T01780178 $
KMDT 290705Z 31013KT 1 3/4SM R13/5000VP6000FT +TSRA BR SCT021 OVC043CB 18/17 A3006 RMK AO2 LTG DSNT ALQDS PRESRR FRQ LTGICCGCC OHD-ALQDS TS OHD-ALQDS MOV E CBOHD-ALQDS MOV E P0000 T01830172 $
KMDT 290656Z 31010KT 7SM TSRA SCT047 BKN055CB OVC100 19/18 A3003 RMK AO2 LTG DSNT ALQDS RAB26 TSB33 SLP166 FRQ LTGICCGCC OHD-ALQDS TS S-OHD MOV E CB S-OHD MOV E P0002 T01940178
KMDT 290639Z COR 00000KT 8SM TSRA BKN047CB BKN060 OVC100 20/17 A3001 RMK AO2 LTG DSNT SW-NW RAB26 TSB33 OCNL LTGICCGCA W TS VC SW MOV E CB SW MOV E P0000 T02000172
KMDT 290556Z 05005KT 10SM FEW065 SCT120 OVC250 21/16 A3000 RMK AO2 SLP159 T02060161 10222 20183 58005
KMDT 290456Z 00000KT 10SM SCT060 OVC120 20/16 A3001 RMK AO2 SLP161 T02000161 402830144
KMDT 290356Z 14005KT 10SM FEW065 SCT095 OVC250 19/16 A3002 RMK AO2 SLP163 T01940156
KMDT 290256Z 13003KT 10SM BKN065 BKN250 20/15 A3002 RMK AO2 SLP165 T02000150 53005
KMDT 290156Z 13005KT 10SM FEW060 BKN250 19/13 A3002 RMK AO2 SLP165 T01940133
KMDT 290056Z 14003KT 10SM BKN250 20/14 A3000 RMK AO2 SLP157 T02000144
KMDT 282356Z 00000KT 10SM FEW060 BKN250 22/12 A3000 RMK AO2 SLP159 T02170122 10283 20211 53005
KMDT 282256Z 00000KT 10SM SCT150 BKN250 26/11 A3000 RMK AO2 SLP158 T02610106
KMDT 282156Z VRB03KT 10SM SCT150 27/11 A2999 RMK AO2 SLP155 T02670111
KMDT 282056Z 00000KT 10SM SCT150 28/08 A2999 RMK AO2 SLP154 T02780078 58013
KMDT 281956Z 00000KT 10SM SCT150 27/08 A3000 RMK AO2 SLP159 T02720078
KMDT 281856Z 31004KT 10SM SCT140 27/08 A3002 RMK AO2 SLP163 T02720078
KMDT 281756Z 30008KT 10SM SCT140 26/08 A3003 RMK AO2 SLP167 T02560083 10261 20189 53001
KMDT 281656Z 33007KT 10SM BKN120 25/10 A3002 RMK AO2 SLP165 T02500100
KMDT 281556Z 31009KT 10SM CLR 24/11 A3003 RMK AO2 SLP168 T02390111
KMDT 281456Z 30007KT 10SM CLR 23/12 A3002 RMK AO2 SLP166 T02280122 51015
KMDT 281356Z 32009KT 10SM SCT120 22/12 A3001 RMK AO2 SLP163 T02170122
KMDT 281256Z 31008KT 10SM SCT100 21/15 A3000 RMK AO2 SLP159 T02060150
KMDT 281156Z 30006KT 7SM SCT100 18/17 A2998 RMK AO2 SLP151 T01830172 10206 20144 53029
KMDT 281056Z 32003KT 4SM BR FEW070 16/16 A2995 RMK AO2 SLP140 T01610161
KMDT 280956Z 00000KT 8SM FEW070 FEW250 16/16 A2992 RMK AO2 SLP129 T01610161
KMDT 280856Z 31004KT 7SM BKN250 16/16 A2989 RMK AO2 SLP122 T01560156 53027
KMDT 280756Z 00000KT 5SM BR FEW140 FEW250 16/16 A2986 RMK AO2 SLP109 T01610156